createdAt,value
2018-08-18T00:00:32.618Z,15.22
2018-08-18T00:03:02.316Z,15.19
2018-08-18T00:05:31.956Z,15.11
2018-08-18T00:08:01.541Z,14.99
2018-08-18T00:10:31.378Z,14.97
2018-08-18T00:13:01.006Z,14.99
2018-08-18T00:15:30.707Z,14.97
2018-08-18T00:18:00.367Z,14.97
2018-08-18T00:20:30.088Z,15.07
2018-08-18T00:22:59.750Z,15.06
2018-08-18T00:25:29.432Z,15.04
2018-08-18T00:28:24.152Z,14.92
2018-08-18T00:30:54.319Z,14.94
2018-08-18T00:33:24.335Z,15.00
2018-08-18T00:35:53.910Z,14.80
2018-08-18T00:38:24.019Z,14.79
2018-08-18T00:40:54.618Z,14.78
2018-08-18T00:43:24.271Z,14.72
2018-08-18T00:45:54.055Z,14.86
2018-08-18T00:48:23.684Z,14.86
2018-08-18T00:50:53.418Z,14.82
2018-08-18T00:53:23.066Z,14.70
2018-08-18T00:55:52.774Z,14.54
2018-08-18T00:58:27.265Z,14.47
2018-08-18T01:01:02.506Z,14.43
2018-08-18T01:03:40.374Z,14.46
2018-08-18T01:06:19.854Z,14.44
2018-08-18T01:08:53.044Z,14.40
2018-08-18T01:11:22.754Z,14.42
2018-08-18T01:13:53.069Z,14.41
2018-08-18T01:16:22.581Z,14.42
2018-08-18T01:18:54.906Z,14.43
2018-08-18T01:21:25.538Z,14.47
2018-08-18T01:23:55.252Z,14.54
2018-08-18T01:26:24.900Z,14.50
2018-08-18T01:29:05.248Z,14.54
2018-08-18T01:31:34.886Z,14.56
2018-08-18T01:34:05.034Z,14.56
2018-08-18T01:36:34.633Z,14.53
2018-08-18T01:39:05.665Z,14.48
2018-08-18T01:41:35.535Z,14.43
2018-08-18T01:44:18.737Z,14.40
2018-08-18T01:46:49.486Z,14.36
2018-08-18T01:49:28.429Z,14.36
2018-08-18T01:52:00.108Z,14.32
2018-08-18T01:54:30.006Z,14.34
2018-08-18T01:57:06.639Z,14.32
2018-08-18T01:59:36.845Z,14.48
2018-08-18T02:02:27.910Z,14.41
2018-08-18T02:05:06.592Z,14.39
2018-08-18T02:07:36.196Z,14.29
2018-08-18T02:10:07.280Z,14.35
2018-08-18T02:12:36.844Z,14.57
2018-08-18T02:15:06.482Z,14.29
2018-08-18T02:17:37.226Z,14.19
2018-08-18T02:20:10.035Z,14.13
2018-08-18T02:22:39.685Z,14.15
2018-08-18T02:25:09.368Z,14.07
2018-08-18T02:27:38.947Z,14.13
2018-08-18T02:30:24.247Z,14.07
2018-08-18T02:32:53.885Z,14.08
2018-08-18T02:35:24.638Z,14.01
2018-08-18T02:37:54.283Z,14.29
2018-08-18T02:40:23.824Z,14.06
2018-08-18T02:42:53.421Z,14.59
2018-08-18T02:45:23.095Z,14.73
2018-08-18T02:48:10.507Z,14.85
2018-08-18T02:50:44.195Z,14.90
2018-08-18T02:53:30.181Z,14.92
2018-08-18T02:55:59.779Z,14.82
2018-08-18T02:58:29.509Z,14.75
2018-08-18T03:00:59.044Z,14.66
2018-08-18T03:03:28.623Z,14.62
2018-08-18T03:06:10.015Z,14.57
2018-08-18T03:08:39.602Z,14.36
2018-08-18T03:11:09.297Z,14.23
2018-08-18T03:13:38.847Z,14.30
2018-08-18T03:16:10.840Z,14.26
2018-08-18T03:18:47.682Z,14.20
2018-08-18T03:21:17.839Z,14.16
2018-08-18T03:24:04.369Z,14.09
2018-08-18T03:26:39.395Z,14.09
2018-08-18T03:29:09.324Z,14.06
2018-08-18T03:31:39.728Z,14.13
2018-08-18T03:34:09.792Z,14.16
2018-08-18T03:36:41.412Z,14.11
2018-08-18T03:39:22.617Z,14.07
2018-08-18T03:41:55.196Z,14.04
2018-08-18T03:44:24.864Z,13.98
2018-08-18T03:46:54.518Z,14.16
2018-08-18T03:49:24.179Z,14.09
2018-08-18T03:51:55.342Z,14.16
2018-08-18T03:54:24.931Z,14.07
2018-08-18T03:56:54.765Z,14.34
2018-08-18T03:59:24.828Z,14.54
2018-08-18T04:01:55.883Z,14.71
2018-08-18T04:04:27.094Z,14.88
2018-08-18T04:06:57.860Z,14.90
2018-08-18T04:09:30.730Z,14.95
2018-08-18T04:12:02.984Z,15.00
2018-08-18T04:14:37.658Z,15.05
2018-08-18T04:17:39.776Z,15.05
2018-08-18T04:20:09.468Z,15.10
2018-08-18T04:22:39.006Z,15.12
2018-08-18T04:25:08.758Z,15.16
2018-08-18T04:27:41.715Z,15.11
2018-08-18T04:30:14.337Z,15.16
2018-08-18T04:32:53.137Z,15.16
2018-08-18T04:35:27.197Z,15.29
2018-08-18T04:37:57.548Z,15.18
2018-08-18T04:40:27.437Z,15.21
2018-08-18T04:42:59.706Z,15.20
2018-08-18T04:45:29.330Z,15.20
2018-08-18T04:47:58.882Z,15.13
2018-08-18T04:50:28.560Z,15.19
2018-08-18T04:52:58.046Z,15.19
2018-08-18T04:55:27.559Z,15.04
2018-08-18T04:57:57.113Z,15.34
2018-08-18T05:00:28.843Z,15.58
2018-08-18T05:02:59.375Z,17.80
2018-08-18T05:05:30.319Z,17.27
2018-08-18T05:08:01.231Z,19.15
2018-08-18T05:10:30.991Z,18.93
2018-08-18T05:13:00.741Z,18.40
2018-08-18T05:15:30.404Z,18.38
2018-08-18T05:18:00.035Z,19.14
2018-08-18T05:20:31.001Z,20.55
2018-08-18T05:23:19.095Z,19.90
2018-08-18T05:25:50.591Z,19.20
2018-08-18T05:28:20.540Z,19.98
2018-08-18T05:30:53.163Z,19.55
2018-08-18T05:33:22.894Z,20.48
2018-08-18T05:35:52.519Z,19.81
2018-08-18T05:38:22.247Z,20.73
2018-08-18T05:40:51.822Z,20.65
2018-08-18T05:43:21.348Z,20.57
2018-08-18T05:45:50.959Z,20.55
2018-08-18T05:48:20.512Z,21.04
2018-08-18T05:50:50.076Z,23.34
2018-08-18T05:53:21.449Z,20.98
2018-08-18T05:55:51.233Z,20.87
2018-08-18T05:58:20.956Z,21.85
2018-08-18T06:00:55.504Z,21.05
2018-08-18T06:03:25.108Z,24.96
2018-08-18T06:05:54.793Z,23.07
2018-08-18T06:08:24.412Z,25.01
2018-08-18T06:10:54.169Z,25.37
2018-08-18T06:13:24.049Z,25.20
2018-08-18T06:16:09.496Z,25.96
2018-08-18T06:18:40.129Z,27.04
2018-08-18T06:21:09.826Z,24.30
2018-08-18T06:23:39.884Z,26.16
2018-08-18T06:26:09.829Z,24.01
2018-08-18T06:28:39.436Z,24.42
2018-08-18T06:31:09.145Z,24.93
2018-08-18T06:33:38.719Z,25.69
2018-08-18T06:36:08.311Z,26.85
2018-08-18T06:38:37.889Z,26.68
2018-08-18T06:41:07.945Z,28.11
2018-08-18T06:43:37.417Z,25.37
2018-08-18T06:46:07.018Z,26.52
2018-08-18T06:48:37.558Z,27.72
2018-08-18T06:51:07.922Z,28.10
2018-08-18T06:53:45.556Z,27.35
2018-08-18T06:56:15.349Z,26.50
2018-08-18T06:58:45.001Z,25.30
2018-08-18T07:01:14.719Z,28.30
2018-08-18T07:03:45.881Z,28.70
2018-08-18T07:06:16.891Z,29.10
2018-08-18T07:08:53.943Z,26.97
2018-08-18T07:11:23.552Z,24.52
2018-08-18T07:13:53.191Z,23.99
2018-08-18T07:16:22.812Z,25.91
2018-08-18T07:18:52.337Z,26.99
2018-08-18T07:21:22.092Z,26.38
2018-08-18T07:23:51.675Z,29.59
2018-08-18T07:26:21.288Z,28.80
2018-08-18T07:28:51.026Z,28.58
2018-08-18T07:31:20.532Z,24.77
2018-08-18T07:33:50.275Z,27.88
2018-08-18T07:36:20.053Z,28.31
2018-08-18T07:38:49.662Z,26.17
2018-08-18T07:41:20.211Z,26.08
2018-08-18T07:43:49.780Z,27.43
2018-08-18T07:46:19.600Z,24.85
2018-08-18T07:48:49.134Z,22.26
2018-08-18T07:51:18.848Z,21.64
2018-08-18T07:53:48.474Z,21.32
2018-08-18T07:56:18.177Z,19.74
2018-08-18T07:58:47.792Z,20.20
2018-08-18T08:01:17.392Z,19.78
2018-08-18T08:03:46.995Z,19.72
2018-08-18T08:06:16.671Z,19.91
2018-08-18T08:08:48.482Z,20.33
2018-08-18T08:11:18.193Z,20.42
2018-08-18T08:13:47.946Z,19.85
2018-08-18T08:16:17.703Z,19.97
2018-08-18T08:18:47.356Z,20.29
2018-08-18T08:21:17.148Z,20.30
2018-08-18T08:23:46.835Z,20.60
2018-08-18T08:26:16.392Z,20.32
2018-08-18T08:28:46.143Z,20.40
2018-08-18T08:31:15.780Z,20.77
2018-08-18T08:33:45.518Z,20.80
2018-08-18T08:36:16.943Z,20.97
2018-08-18T08:38:57.654Z,20.77
2018-08-18T08:41:29.699Z,20.47
2018-08-18T08:43:59.718Z,20.81
2018-08-18T08:46:29.749Z,21.09
2018-08-18T08:49:01.480Z,20.93
2018-08-18T08:51:34.253Z,20.99
2018-08-18T08:54:04.323Z,20.86
2018-08-18T08:56:38.916Z,20.94
2018-08-18T08:59:08.930Z,21.13
2018-08-18T09:01:38.728Z,21.51
2018-08-18T09:04:08.585Z,21.24
2018-08-18T09:06:42.433Z,21.61
2018-08-18T09:09:12.230Z,21.62
2018-08-18T09:11:41.933Z,21.44
2018-08-18T09:14:11.738Z,21.35
2018-08-18T09:16:41.720Z,21.59
2018-08-18T09:19:11.329Z,21.16
2018-08-18T09:21:46.358Z,21.85
2018-08-18T09:24:15.945Z,21.11
2018-08-18T09:26:50.749Z,21.49
2018-08-18T09:29:20.715Z,21.39
2018-08-18T09:31:50.476Z,21.50
2018-08-18T09:34:20.637Z,21.47
2018-08-18T09:36:50.390Z,21.87
2018-08-18T09:39:36.438Z,21.98
2018-08-18T09:42:10.460Z,21.92
2018-08-18T09:44:49.107Z,22.37
2018-08-18T09:47:18.908Z,22.71
2018-08-18T09:49:48.509Z,22.45
2018-08-18T09:52:20.148Z,21.89
2018-08-18T09:54:49.778Z,22.33
2018-08-18T09:57:19.633Z,22.19
2018-08-18T09:59:49.297Z,21.98
2018-08-18T10:02:19.076Z,22.20
2018-08-18T10:04:48.832Z,22.05
2018-08-18T10:07:19.238Z,22.71
2018-08-18T10:09:48.879Z,22.80
2018-08-18T10:12:18.543Z,22.62
2018-08-18T10:14:48.260Z,23.10
2018-08-18T10:17:17.900Z,23.42
2018-08-18T10:19:47.529Z,22.28
2018-08-18T10:22:17.176Z,22.98
2018-08-18T10:24:46.760Z,23.79
2018-08-18T10:27:18.142Z,24.08
2018-08-18T10:29:47.825Z,23.04
2018-08-18T10:32:17.466Z,22.09
2018-08-18T10:34:47.115Z,22.13
2018-08-18T10:37:16.681Z,23.34
2018-08-18T10:39:46.377Z,23.17
2018-08-18T10:42:20.797Z,23.86
2018-08-18T10:44:55.590Z,23.61
2018-08-18T10:47:25.476Z,23.92
2018-08-18T10:50:11.950Z,23.97
2018-08-18T10:52:56.240Z,23.84
2018-08-18T10:55:25.913Z,24.54
2018-08-18T10:58:02.820Z,24.86
2018-08-18T11:00:33.630Z,24.71
2018-08-18T11:03:04.662Z,25.03
2018-08-18T11:05:34.491Z,25.13
2018-08-18T11:08:10.028Z,25.89
2018-08-18T11:10:41.839Z,23.46
2018-08-18T11:13:11.512Z,23.78
2018-08-18T11:15:41.155Z,23.27
2018-08-18T11:18:10.810Z,23.29
2018-08-18T11:20:40.414Z,24.11
2018-08-18T11:23:12.996Z,23.68
2018-08-18T11:25:53.067Z,23.87
2018-08-18T11:28:23.609Z,23.58
2018-08-18T11:30:54.722Z,23.45
2018-08-18T11:33:39.078Z,23.76
2018-08-18T11:36:09.817Z,23.94
2018-08-18T11:38:39.831Z,24.15
2018-08-18T11:41:09.514Z,23.95
2018-08-18T11:43:50.037Z,23.62
2018-08-18T11:46:19.888Z,23.89
2018-08-18T11:48:49.619Z,23.94
2018-08-18T11:51:19.505Z,23.82
2018-08-18T11:54:00.501Z,23.36
2018-08-18T11:56:30.300Z,23.90
2018-08-18T11:59:13.135Z,23.95
2018-08-18T12:01:47.813Z,23.81
2018-08-18T12:04:18.337Z,23.54
2018-08-18T12:06:53.162Z,24.10
2018-08-18T12:09:23.026Z,23.58
2018-08-18T12:11:52.832Z,23.99
2018-08-18T12:14:22.499Z,24.12
2018-08-18T12:16:52.509Z,24.32
2018-08-18T12:19:22.265Z,23.86
2018-08-18T12:21:52.004Z,24.07
2018-08-18T12:24:22.352Z,24.55
2018-08-18T12:27:07.466Z,23.56
2018-08-18T12:29:37.371Z,23.59
2018-08-18T12:32:39.931Z,24.10
2018-08-18T12:35:09.602Z,23.58
2018-08-18T12:37:39.235Z,23.76
2018-08-18T12:40:08.961Z,23.70
2018-08-18T12:42:38.842Z,23.63
2018-08-18T12:45:08.522Z,24.53
2018-08-18T12:47:42.633Z,24.62
2018-08-18T12:50:13.874Z,24.94
2018-08-18T12:52:48.978Z,24.70
2018-08-18T12:55:20.380Z,24.79
2018-08-18T12:57:51.161Z,24.89
2018-08-18T13:00:20.794Z,24.94
2018-08-18T13:02:54.753Z,24.74
2018-08-18T13:05:26.326Z,24.26
2018-08-18T13:08:02.968Z,24.73
2018-08-18T13:10:32.598Z,24.11
2018-08-18T13:13:02.228Z,24.61
2018-08-18T13:15:31.827Z,24.75
2018-08-18T13:18:01.418Z,24.18
2018-08-18T13:20:31.316Z,24.07
2018-08-18T13:23:00.971Z,24.10
2018-08-18T13:25:31.340Z,24.72
2018-08-18T13:28:00.993Z,24.94
2018-08-18T13:30:30.634Z,25.12
2018-08-18T13:33:00.469Z,24.89
2018-08-18T13:35:30.114Z,25.13
2018-08-18T13:37:59.789Z,25.35
2018-08-18T13:40:29.676Z,24.70
2018-08-18T13:42:59.318Z,24.65
2018-08-18T13:45:42.410Z,24.27
2018-08-18T13:48:12.983Z,24.34
2018-08-18T13:50:42.733Z,24.50
2018-08-18T13:53:12.320Z,24.98
2018-08-18T13:55:42.591Z,25.16
2018-08-18T13:58:13.142Z,24.91
2018-08-18T14:00:42.703Z,24.99
2018-08-18T14:03:29.092Z,24.88
2018-08-18T14:05:58.727Z,25.21
2018-08-18T14:08:28.356Z,25.24
2018-08-18T14:10:58.076Z,25.08
2018-08-18T14:13:29.126Z,24.84
2018-08-18T14:15:59.005Z,24.95
2018-08-18T14:18:28.689Z,25.25
2018-08-18T14:21:06.722Z,24.83
2018-08-18T14:23:36.429Z,24.77
2018-08-18T14:26:06.227Z,24.69
2018-08-18T14:28:35.941Z,24.21
2018-08-18T14:31:05.654Z,25.02
2018-08-18T14:33:35.404Z,24.61
2018-08-18T14:36:10.993Z,24.69
2018-08-18T14:38:42.053Z,25.07
2018-08-18T14:41:12.273Z,24.96
2018-08-18T14:43:42.744Z,25.21
2018-08-18T14:46:15.353Z,25.01
2018-08-18T14:48:44.882Z,24.78
2018-08-18T14:51:14.488Z,25.18
2018-08-18T14:53:44.074Z,24.84
2018-08-18T14:56:13.689Z,24.41
2018-08-18T14:58:45.410Z,24.77
2018-08-18T15:01:15.757Z,24.93
2018-08-18T15:03:45.443Z,25.19
2018-08-18T15:06:15.064Z,25.12
2018-08-18T15:08:44.827Z,25.02
2018-08-18T15:11:14.399Z,24.74
2018-08-18T15:13:43.991Z,24.48
2018-08-18T15:16:14.453Z,24.84
2018-08-18T15:18:44.056Z,25.24
2018-08-18T15:21:13.762Z,24.80
2018-08-18T15:23:43.451Z,24.56
2018-08-18T15:26:13.110Z,24.75
2018-08-18T15:28:42.793Z,24.93
2018-08-18T15:31:12.412Z,25.21
2018-08-18T15:33:42.044Z,24.96
2018-08-18T15:36:28.497Z,24.83
2018-08-18T15:38:58.192Z,24.57
2018-08-18T15:41:27.826Z,24.65
2018-08-18T15:43:57.468Z,24.53
2018-08-18T15:46:27.177Z,24.80
2018-08-18T15:48:57.077Z,25.16
2018-08-18T15:51:27.322Z,25.03
2018-08-18T15:53:59.046Z,24.82
2018-08-18T15:56:29.811Z,24.77
2018-08-18T15:59:00.276Z,25.19
2018-08-18T16:01:32.120Z,25.11
2018-08-18T16:04:03.170Z,25.28
2018-08-18T16:06:32.815Z,24.96
2018-08-18T16:09:02.558Z,24.78
2018-08-18T16:11:32.217Z,24.87
2018-08-18T16:14:01.933Z,25.12
2018-08-18T16:16:31.636Z,24.85
2018-08-18T16:19:06.415Z,24.87
2018-08-18T16:21:36.088Z,24.84
2018-08-18T16:24:05.895Z,24.66
2018-08-18T16:26:35.578Z,24.52
2018-08-18T16:29:05.156Z,24.58
2018-08-18T16:31:34.777Z,24.97
2018-08-18T16:34:04.452Z,24.92
2018-08-18T16:36:39.465Z,24.66
2018-08-18T16:39:09.776Z,24.55
2018-08-18T16:41:39.334Z,24.58
2018-08-18T16:44:09.096Z,24.66
2018-08-18T16:46:38.684Z,24.56
2018-08-18T16:49:08.390Z,24.56
2018-08-18T16:51:38.463Z,24.89
2018-08-18T16:54:20.951Z,24.67
2018-08-18T16:56:50.615Z,24.52
2018-08-18T16:59:20.357Z,24.48
2018-08-18T17:01:50.109Z,24.36
2018-08-18T17:04:28.907Z,24.30
2018-08-18T17:06:58.661Z,24.29
2018-08-18T17:09:46.641Z,24.14
2018-08-18T17:12:23.842Z,24.17
2018-08-18T17:14:54.108Z,24.02
2018-08-18T17:17:25.729Z,23.85
2018-08-18T17:19:55.397Z,23.90
2018-08-18T17:22:25.089Z,23.78
2018-08-18T17:24:54.896Z,23.83
2018-08-18T17:27:25.097Z,23.68
2018-08-18T17:29:54.732Z,23.54
2018-08-18T17:32:26.983Z,23.50
2018-08-18T17:34:56.677Z,23.45
2018-08-18T17:37:26.470Z,23.33
2018-08-18T17:39:56.199Z,23.29
2018-08-18T17:42:25.884Z,23.32
2018-08-18T17:44:55.618Z,23.23
2018-08-18T17:47:25.419Z,23.13
2018-08-18T17:49:56.063Z,23.06
2018-08-18T17:52:26.536Z,23.02
2018-08-18T17:55:10.425Z,22.98
2018-08-18T17:57:40.319Z,22.94
2018-08-18T18:00:17.296Z,22.88
2018-08-18T18:02:53.506Z,22.83
2018-08-18T18:05:30.445Z,22.74
2018-08-18T18:08:05.316Z,22.68
2018-08-18T18:10:37.821Z,22.61
2018-08-18T18:13:17.248Z,22.58
2018-08-18T18:15:48.386Z,22.53
2018-08-18T18:18:20.058Z,22.44
2018-08-18T18:20:51.218Z,22.42
2018-08-18T18:23:21.390Z,22.31
2018-08-18T18:25:51.161Z,22.25
2018-08-18T18:28:20.970Z,22.23
2018-08-18T18:30:53.844Z,22.17
2018-08-18T18:33:23.726Z,22.15
2018-08-18T18:35:53.431Z,22.01
2018-08-18T18:38:23.223Z,21.98
2018-08-18T18:40:52.963Z,21.94
2018-08-18T18:43:22.820Z,21.91
2018-08-18T18:45:53.655Z,21.78
2018-08-18T18:48:23.354Z,21.81
2018-08-18T18:50:53.022Z,21.70
2018-08-18T18:53:22.813Z,21.73
2018-08-18T18:55:54.361Z,21.68
2018-08-18T18:58:24.295Z,21.62
2018-08-18T19:00:57.228Z,21.59
2018-08-18T19:03:26.895Z,21.54
2018-08-18T19:05:56.656Z,21.50
2018-08-18T19:08:26.412Z,21.42
2018-08-18T19:10:56.243Z,21.48
2018-08-18T19:13:28.074Z,21.46
2018-08-18T19:15:58.161Z,21.37
2018-08-18T19:18:27.804Z,21.35
2018-08-18T19:20:57.643Z,21.31
2018-08-18T19:23:27.418Z,21.19
2018-08-18T19:25:57.314Z,21.20
2018-08-18T19:28:27.017Z,21.12
2018-08-18T19:30:56.583Z,21.03
2018-08-18T19:33:26.578Z,21.03
2018-08-18T19:35:56.372Z,21.00
2018-08-18T19:38:26.124Z,20.81
2018-08-18T19:40:56.582Z,20.81
2018-08-18T19:43:27.568Z,20.75
2018-08-18T19:45:57.646Z,20.75
2018-08-18T19:48:28.426Z,20.73
2018-08-18T19:51:03.025Z,20.75
2018-08-18T19:53:34.044Z,20.72
2018-08-18T19:56:04.333Z,20.54
2018-08-18T19:58:34.154Z,20.48
2018-08-18T20:01:03.958Z,20.45
2018-08-18T20:03:34.644Z,20.48
2018-08-18T20:06:08.542Z,20.38
2018-08-18T20:08:38.298Z,20.47
2018-08-18T20:11:08.139Z,20.34
2018-08-18T20:13:38.068Z,20.34
2018-08-18T20:16:07.998Z,20.23
2018-08-18T20:18:37.793Z,20.09
2018-08-18T20:21:07.464Z,20.30
2018-08-18T20:23:37.234Z,20.17
2018-08-18T20:26:06.936Z,20.22
2018-08-18T20:28:36.667Z,19.93
2018-08-18T20:31:06.380Z,19.90
2018-08-18T20:33:36.124Z,19.79
2018-08-18T20:36:05.894Z,20.19
2018-08-18T20:38:46.308Z,20.07
2018-08-18T20:41:16.168Z,20.11
2018-08-18T20:43:48.679Z,20.21
2018-08-18T20:46:18.536Z,19.88
2018-08-18T20:48:48.215Z,19.63
2018-08-18T20:51:22.064Z,19.51
2018-08-18T20:53:51.793Z,19.53
2018-08-18T20:56:21.994Z,19.45
2018-08-18T20:58:51.727Z,19.36
2018-08-18T21:01:21.729Z,19.44
2018-08-18T21:03:52.397Z,19.38
2018-08-18T21:06:22.054Z,19.55
2018-08-18T21:08:51.867Z,19.28
2018-08-18T21:11:21.603Z,19.15
2018-08-18T21:13:52.231Z,19.09
2018-08-18T21:16:23.548Z,19.12
2018-08-18T21:18:53.142Z,19.31
2018-08-18T21:21:29.348Z,19.12
2018-08-18T21:23:59.775Z,19.06
2018-08-18T21:26:30.252Z,19.19
2018-08-18T21:29:00.091Z,19.15
2018-08-18T21:31:36.215Z,19.15
2018-08-18T21:34:07.102Z,18.94
2018-08-18T21:36:37.389Z,18.86
2018-08-18T21:39:09.668Z,18.79
2018-08-18T21:41:41.451Z,18.84
2018-08-18T21:44:13.505Z,19.02
2018-08-18T21:46:43.749Z,18.89
2018-08-18T21:49:14.356Z,18.78
2018-08-18T21:51:44.452Z,18.77
2018-08-18T21:54:14.221Z,18.82
2018-08-18T21:56:44.188Z,18.69
2018-08-18T21:59:14.649Z,18.60
2018-08-18T22:01:44.318Z,18.59
2018-08-18T22:04:20.874Z,18.66
2018-08-18T22:06:50.846Z,18.64
2018-08-18T22:09:28.434Z,18.73
2018-08-18T22:11:58.103Z,18.62
2018-08-18T22:14:27.925Z,18.63
2018-08-18T22:16:58.544Z,18.52
2018-08-18T22:19:29.863Z,18.58
2018-08-18T22:22:05.786Z,18.45
2018-08-18T22:24:35.756Z,18.39
2018-08-18T22:27:05.651Z,18.33
2018-08-18T22:29:35.462Z,18.25
2018-08-18T22:32:09.344Z,18.17
2018-08-18T22:34:38.969Z,18.27
2018-08-18T22:37:15.017Z,18.38
2018-08-18T22:39:44.682Z,18.26
2018-08-18T22:42:14.356Z,18.32
2018-08-18T22:44:50.694Z,18.29
2018-08-18T22:47:20.411Z,18.30
2018-08-18T22:49:52.033Z,18.30
2018-08-18T22:52:21.972Z,18.21
2018-08-18T22:54:51.908Z,18.18
2018-08-18T22:57:22.006Z,18.38
2018-08-18T22:59:52.908Z,18.26
2018-08-18T23:02:22.663Z,18.12
2018-08-18T23:04:52.448Z,18.17
2018-08-18T23:07:22.173Z,18.38
2018-08-18T23:09:51.966Z,18.42
2018-08-18T23:12:21.934Z,18.22
2018-08-18T23:14:51.535Z,17.98
2018-08-18T23:17:21.279Z,17.88
2018-08-18T23:19:51.016Z,17.78
2018-08-18T23:22:41.526Z,17.72
2018-08-18T23:25:11.159Z,17.73
2018-08-18T23:27:40.824Z,17.60
2018-08-18T23:30:10.872Z,17.54
2018-08-18T23:32:40.911Z,17.51
2018-08-18T23:35:10.769Z,17.64
2018-08-18T23:37:40.480Z,17.59
2018-08-18T23:40:10.310Z,17.70
2018-08-18T23:42:40.214Z,17.74
2018-08-18T23:45:09.975Z,17.55
2018-08-18T23:47:40.004Z,17.51
2018-08-18T23:50:09.985Z,17.57
2018-08-18T23:52:55.419Z,17.62
2018-08-18T23:55:25.295Z,17.72
2018-08-18T23:57:55.262Z,17.74
